Fernando Pessoa — CSKQ — position and weather

sailwx.info

Track history (hours):
 
Tides and Currents Weather Stations Pressure Air Temp Water Temp Dewpoint Dewpoint Depression Visibility Wind Speed Wind Dir Waves Ship Positions

Fernando Pessoa

Last reported at 2015-May-25 20:33 UTC. Time now 2015-May-25 21:26 UTC.
Position N 38°39' W 009°05'.

Length 49 m.

MMSI: 263701470.

Date/timePositionNaut miles runAvg speedWind from/ knotsBaromVisibWave heightAir tempDewpointWater temp
2015-May-25 20:33N 38°39' W 009°05'0 0.0
2015-May-25 19:33N 38°39' W 009°05'4 3.9
2015-May-25 18:33N 38°42' W 009°08'0 0.3
2015-May-25 17:33N 38°42' W 009°08'2 2.5
2015-May-25 16:33N 38°40' W 009°07'2 2.0
2015-May-25 15:32N 38°39' W 009°05'1 1.0
2015-May-25 14:33N 38°39' W 009°06'1 1.0
2015-May-25 13:33N 38°39' W 009°05'0 0.0
2015-May-25 12:33N 38°39' W 009°05'0 0.0
2015-May-25 11:32N 38°39' W 009°05'0 0.0
2015-May-25 10:32N 38°39' W 009°05'0 0.1
2015-May-25 09:33N 38°39' W 009°05'2 1.5
2015-May-25 08:34N 38°40' W 009°06'1 0.9
2015-May-25 07:33N 38°40' W 009°07'2 2.4
2015-May-25 06:33N 38°39' W 009°05'0 0.0
2015-May-25 05:33N 38°39' W 009°05'0 0.0
2015-May-25 04:33N 38°39' W 009°05'0 0.0
2015-May-25 03:33N 38°39' W 009°05'0 0.0
2015-May-25 02:33N 38°39' W 009°05'0 0.0
2015-May-25 01:33N 38°39' W 009°05'0 0.0
2015-May-25 00:33N 38°39' W 009°05'0 0.0
2015-May-24 23:33N 38°39' W 009°05'3 0.9
2015-May-24 20:33N 38°41' W 009°08'3 2.8
2015-May-24 19:33N 38°39' W 009°05'2 1.8
2015-May-24 18:33N 38°40' W 009°07'0 0.1
2015-May-24 17:33N 38°40' W 009°07'0 0.1
2015-May-24 16:33N 38°40' W 009°06'0 0.0
2015-May-24 15:33N 38°40' W 009°06'0 0.3
2015-May-24 14:33N 38°40' W 009°06'0 0.4
2015-May-24 13:32N 38°39' W 009°06'0 0.0
2015-May-24 12:32N 38°39' W 009°06'1 0.9
2015-May-24 11:33N 38°39' W 009°05'0 0.0
2015-May-24 10:33N 38°39' W 009°05'0 0.0
2015-May-24 09:33N 38°39' W 009°05'0 0.0
2015-May-24 08:33N 38°39' W 009°05'0 0.0
2015-May-24 07:33N 38°39' W 009°05'0 0.0
2015-May-24 06:33N 38°39' W 009°05'0 0.4
2015-May-24 05:33N 38°39' W 009°05'0 0.4
2015-May-24 04:33N 38°39' W 009°05'3 0.4
2015-May-23 20:32N 38°41' W 009°08'3 3.3
2015-May-23 19:33N 38°39' W 009°05'2 1.6
2015-May-23 18:33N 38°40' W 009°07'0 0.0
2015-May-23 17:34N 38°40' W 009°07'0 0.2
2015-May-23 16:33N 38°40' W 009°06'0 0.0
2015-May-23 15:33N 38°40' W 009°06'0 0.1
2015-May-23 14:33N 38°40' W 009°07'0 0.2
2015-May-23 13:33N 38°40' W 009°06'0 0.4
2015-May-23 12:33N 38°40' W 009°06'1 1.0
2015-May-23 11:33N 38°39' W 009°05'0 0.0
2015-May-23 10:32N 38°39' W 009°05'3 3.0
2015-May-23 09:33N 38°41' W 009°08'0 0.2
2015-May-23 08:33N 38°41' W 009°08'0 0.2
2015-May-23 07:33N 38°41' W 009°08'3 3.0
2015-May-23 06:33N 38°39' W 009°05'0 0.4
2015-May-23 05:34N 38°39' W 009°05'0 0.4
2015-May-23 04:33N 38°39' W 009°05'0 0.0
2015-May-23 03:33N 38°39' W 009°05'0 0.0
2015-May-23 02:33N 38°39' W 009°05'0 0.0
2015-May-23 01:33N 38°39' W 009°05'0 0.0
2015-May-23 00:32N 38°39' W 009°05'0 0.0
2015-May-22 23:33N 38°39' W 009°05'4 4.0
2015-May-22 22:33N 38°42' W 009°08'1 1.5
2015-May-22 21:33N 38°41' W 009°08'0 0.1
2015-May-22 20:33N 38°41' W 009°08'3 2.9
2015-May-22 19:33N 38°39' W 009°05'1 0.5
2015-May-22 18:33N 38°39' W 009°05'1 0.5
2015-May-22 17:33N 38°39' W 009°05'1 1.3
2015-May-22 16:33N 38°40' W 009°06'1 1.2
2015-May-22 15:33N 38°39' W 009°05'0 0.0
2015-May-22 10:33N 38°39' W 009°05'0 0.0
2015-May-22 09:31N 38°39' W 009°05'0 0.0
2015-May-22 08:32N 38°39' W 009°05'0 0.0
2015-May-22 07:33N 38°39' W 009°05'0 0.1
2015-May-22 06:33N 38°39' W 009°05'0 0.1
2015-May-22 05:33N 38°39' W 009°05'0 0.0
2015-May-21 21:27N 38°39' W 009°05'0 0.0
2015-May-21 20:33N 38°39' W 009°05'0 0.0
2015-May-21 19:33N 38°39' W 009°05'3 3.0
2015-May-21 18:33N 38°41' W 009°08'1 1.5
2015-May-21 17:33N 38°40' W 009°07'2 1.7
2015-May-21 16:33N 38°39' W 009°05'0 0.1
2015-May-21 15:33N 38°39' W 009°05'0 0.0
2015-May-21 09:14N 38°39' W 009°05'1 1.5
2015-May-21 08:33N 38°40' W 009°06'3 2.8
2015-May-21 07:34N 38°42' W 009°08'0 0.5
2015-May-21 06:33N 38°42' W 009°08'4 0.4
2015-May-20 20:22N 38°39' W 009°05'4 4.6
2015-May-20 19:33N 38°42' W 009°08'3 2.8
2015-May-20 18:33N 38°40' W 009°06'3 2.9
2015-May-20 17:33N 38°42' W 009°08'0 0.4
2015-May-20 16:33N 38°42' W 009°08'1 0.8
2015-May-20 15:33N 38°42' W 009°07'3 3.3
2015-May-20 14:33N 38°39' W 009°05'2 1.7
2015-May-20 13:33N 38°40' W 009°07'0 0.4
2015-May-20 12:33N 38°40' W 009°06'1 1.2
2015-May-20 11:33N 38°39' W 009°05'0 0.0
2015-May-20 10:31N 38°39' W 009°05'3 3.0
2015-May-20 09:33N 38°41' W 009°08'3 3.0
2015-May-20 08:33N 38°39' W 009°05'1 0.9
2015-May-20 07:33N 38°39' W 009°06'3 2.9
2015-May-20 06:33N 38°42' W 009°08'1 0.6
2015-May-20 05:33N 38°42' W 009°08'0 0.0
2015-May-20 04:33N 38°42' W 009°08'4 4.1
2015-May-20 03:33N 38°39' W 009°05'0 0.0
2015-May-20 02:33N 38°39' W 009°05'0 0.0
2015-May-20 01:33N 38°39' W 009°05'0 0.5
2015-May-20 00:33N 38°39' W 009°05'0 0.2
2015-May-19 23:33N 38°39' W 009°05'0 0.1
2015-May-19 22:33N 38°39' W 009°05'1 1.1
2015-May-19 21:33N 38°40' W 009°06'0 0.2
2015-May-19 20:33N 38°40' W 009°07'2 1.7
2015-May-19 19:33N 38°39' W 009°05'0 0.0
2015-May-19 18:33N 38°39' W 009°05'1 1.1
2015-May-19 17:33N 38°40' W 009°06'3 3.0
2015-May-19 16:33N 38°42' W 009°08'4 3.9
2015-May-19 15:33N 38°39' W 009°05'0 0.0
2015-May-19 12:26N 38°39' W 009°05'1 1.7
2015-May-19 11:33N 38°40' W 009°07'0 0.3
2015-May-19 10:33N 38°40' W 009°06'1 1.2
2015-May-19 09:33N 38°39' W 009°05'0 0.0
2015-May-19 08:33N 38°39' W 009°05'0 0.1
2015-May-19 07:34N 38°39' W 009°05'1 0.9
2015-May-19 06:33N 38°39' W 009°06'1 0.8
2015-May-19 05:33N 38°39' W 009°05'0 0.0
2015-May-18 20:19N 38°39' W 009°05'3 3.9
2015-May-18 19:33N 38°41' W 009°08'2 2.4
2015-May-18 18:33N 38°39' W 009°06'3 3.1
2015-May-18 17:34N 38°42' W 009°08'0 0.4
2015-May-18 16:33N 38°42' W 009°08'1 1.0
2015-May-18 15:33N 38°41' W 009°08'3 3.3
2015-May-18 14:33N 38°39' W 009°05'2 1.8
2015-May-18 13:33N 38°40' W 009°07'0 0.5
2015-May-18 12:33N 38°40' W 009°06'1 1.3
2015-May-18 11:33N 38°39' W 009°05'0 0.0
2015-May-18 08:33N 38°39' W 009°05'0 0.4
2015-May-18 07:34N 38°39' W 009°05'0 0.5
2015-May-18 06:32N 38°39' W 009°05'0 0.1
2015-May-18 05:33N 38°39' W 009°05'3 0.1
2015-May-16 20:33N 38°41' W 009°08'3 2.7
2015-May-16 19:33N 38°39' W 009°05'2 1.5
2015-May-16 18:33N 38°40' W 009°07'0 0.1
2015-May-16 17:34N 38°40' W 009°07'0 0.1
2015-May-16 16:33N 38°40' W 009°07'0 0.3
2015-May-16 15:34N 38°40' W 009°07'0 0.3
2015-May-16 14:33N 38°40' W 009°07'0 0.2
2015-May-16 13:33N 38°40' W 009°06'0 0.2
2015-May-16 12:34N 38°40' W 009°07'2 1.6
2015-May-16 11:33N 38°39' W 009°05'0 0.0
2015-May-16 10:33N 38°39' W 009°05'3 2.9
2015-May-16 09:33N 38°41' W 009°08'0 0.0
2015-May-16 08:33N 38°41' W 009°08'0 0.2
2015-May-16 07:33N 38°41' W 009°08'3 2.6
2015-May-16 06:34N 38°39' W 009°05'0 0.1
2015-May-16 05:34N 38°39' W 009°05'0 0.2
2015-May-16 04:33N 38°39' W 009°05'0 0.0
2015-May-16 03:33N 38°39' W 009°05'0 0.0
2015-May-16 02:33N 38°39' W 009°05'0 0.0
2015-May-16 01:33N 38°39' W 009°05'0 0.0
2015-May-16 00:33N 38°39' W 009°05'0 0.0
2015-May-15 23:33N 38°39' W 009°05'4 3.9
2015-May-15 22:33N 38°42' W 009°08'1 1.4
2015-May-15 21:33N 38°41' W 009°08'0 0.3
2015-May-15 20:34N 38°41' W 009°08'  
Track history (hours):
 
Tides and Currents Weather Stations Pressure Air Temp Water Temp Dewpoint Dewpoint Depression Visibility Wind Speed Wind Dir Waves Ship Positions

Fernando Pessoa

Last reported at 2015-May-25 20:33 UTC. Time now 2015-May-25 21:26 UTC.
Position N 38°39' W 009°05'.

Length 49 m.

MMSI: 263701470.

Date/timePositionNaut miles runAvg speedWind from/ knotsBaromVisibWave heightAir tempDewpointWater temp
2015-May-25 20:33N 38°39' W 009°05'0 0.0
2015-May-25 19:33N 38°39' W 009°05'4 3.9
2015-May-25 18:33N 38°42' W 009°08'0 0.3
2015-May-25 17:33N 38°42' W 009°08'2 2.5
2015-May-25 16:33N 38°40' W 009°07'2 2.0
2015-May-25 15:32N 38°39' W 009°05'1 1.0
2015-May-25 14:33N 38°39' W 009°06'1 1.0
2015-May-25 13:33N 38°39' W 009°05'0 0.0
2015-May-25 12:33N 38°39' W 009°05'0 0.0
2015-May-25 11:32N 38°39' W 009°05'0 0.0
2015-May-25 10:32N 38°39' W 009°05'0 0.1
2015-May-25 09:33N 38°39' W 009°05'2 1.5
2015-May-25 08:34N 38°40' W 009°06'1 0.9
2015-May-25 07:33N 38°40' W 009°07'2 2.4
2015-May-25 06:33N 38°39' W 009°05'0 0.0
2015-May-25 05:33N 38°39' W 009°05'0 0.0
2015-May-25 04:33N 38°39' W 009°05'0 0.0
2015-May-25 03:33N 38°39' W 009°05'0 0.0
2015-May-25 02:33N 38°39' W 009°05'0 0.0
2015-May-25 01:33N 38°39' W 009°05'0 0.0
2015-May-25 00:33N 38°39' W 009°05'0 0.0
2015-May-24 23:33N 38°39' W 009°05'3 0.9
2015-May-24 20:33N 38°41' W 009°08'3 2.8
2015-May-24 19:33N 38°39' W 009°05'2 1.8
2015-May-24 18:33N 38°40' W 009°07'0 0.1
2015-May-24 17:33N 38°40' W 009°07'0 0.1
2015-May-24 16:33N 38°40' W 009°06'0 0.0
2015-May-24 15:33N 38°40' W 009°06'0 0.3
2015-May-24 14:33N 38°40' W 009°06'0 0.4
2015-May-24 13:32N 38°39' W 009°06'0 0.0
2015-May-24 12:32N 38°39' W 009°06'1 0.9
2015-May-24 11:33N 38°39' W 009°05'0 0.0
2015-May-24 10:33N 38°39' W 009°05'0 0.0
2015-May-24 09:33N 38°39' W 009°05'0 0.0
2015-May-24 08:33N 38°39' W 009°05'0 0.0
2015-May-24 07:33N 38°39' W 009°05'0 0.0
2015-May-24 06:33N 38°39' W 009°05'0 0.4
2015-May-24 05:33N 38°39' W 009°05'0 0.4
2015-May-24 04:33N 38°39' W 009°05'3 0.4
2015-May-23 20:32N 38°41' W 009°08'3 3.3
2015-May-23 19:33N 38°39' W 009°05'2 1.6
2015-May-23 18:33N 38°40' W 009°07'0 0.0
2015-May-23 17:34N 38°40' W 009°07'0 0.2
2015-May-23 16:33N 38°40' W 009°06'0 0.0
2015-May-23 15:33N 38°40' W 009°06'0 0.1
2015-May-23 14:33N 38°40' W 009°07'0 0.2
2015-May-23 13:33N 38°40' W 009°06'0 0.4
2015-May-23 12:33N 38°40' W 009°06'1 1.0
2015-May-23 11:33N 38°39' W 009°05'0 0.0
2015-May-23 10:32N 38°39' W 009°05'3 3.0
2015-May-23 09:33N 38°41' W 009°08'0 0.2
2015-May-23 08:33N 38°41' W 009°08'0 0.2
2015-May-23 07:33N 38°41' W 009°08'3 3.0
2015-May-23 06:33N 38°39' W 009°05'0 0.4
2015-May-23 05:34N 38°39' W 009°05'0 0.4
2015-May-23 04:33N 38°39' W 009°05'0 0.0
2015-May-23 03:33N 38°39' W 009°05'0 0.0
2015-May-23 02:33N 38°39' W 009°05'0 0.0
2015-May-23 01:33N 38°39' W 009°05'0 0.0
2015-May-23 00:32N 38°39' W 009°05'0 0.0
2015-May-22 23:33N 38°39' W 009°05'4 4.0
2015-May-22 22:33N 38°42' W 009°08'1 1.5
2015-May-22 21:33N 38°41' W 009°08'0 0.1
2015-May-22 20:33N 38°41' W 009°08'3 2.9
2015-May-22 19:33N 38°39' W 009°05'1 0.5
2015-May-22 18:33N 38°39' W 009°05'1 0.5
2015-May-22 17:33N 38°39' W 009°05'1 1.3
2015-May-22 16:33N 38°40' W 009°06'1 1.2
2015-May-22 15:33N 38°39' W 009°05'0 0.0
2015-May-22 10:33N 38°39' W 009°05'0 0.0
2015-May-22 09:31N 38°39' W 009°05'0 0.0
2015-May-22 08:32N 38°39' W 009°05'0 0.0
2015-May-22 07:33N 38°39' W 009°05'0 0.1
2015-May-22 06:33N 38°39' W 009°05'0 0.1
2015-May-22 05:33N 38°39' W 009°05'0 0.0
2015-May-21 21:27N 38°39' W 009°05'0 0.0
2015-May-21 20:33N 38°39' W 009°05'0 0.0
2015-May-21 19:33N 38°39' W 009°05'3 3.0
2015-May-21 18:33N 38°41' W 009°08'1 1.5
2015-May-21 17:33N 38°40' W 009°07'2 1.7
2015-May-21 16:33N 38°39' W 009°05'0 0.1
2015-May-21 15:33N 38°39' W 009°05'0 0.0
2015-May-21 09:14N 38°39' W 009°05'1 1.5
2015-May-21 08:33N 38°40' W 009°06'3 2.8
2015-May-21 07:34N 38°42' W 009°08'0 0.5
2015-May-21 06:33N 38°42' W 009°08'4 0.4
2015-May-20 20:22N 38°39' W 009°05'4 4.6
2015-May-20 19:33N 38°42' W 009°08'3 2.8
2015-May-20 18:33N 38°40' W 009°06'3 2.9
2015-May-20 17:33N 38°42' W 009°08'0 0.4
2015-May-20 16:33N 38°42' W 009°08'1 0.8
2015-May-20 15:33N 38°42' W 009°07'3 3.3
2015-May-20 14:33N 38°39' W 009°05'2 1.7
2015-May-20 13:33N 38°40' W 009°07'0 0.4
2015-May-20 12:33N 38°40' W 009°06'1 1.2
2015-May-20 11:33N 38°39' W 009°05'0 0.0
2015-May-20 10:31N 38°39' W 009°05'3 3.0
2015-May-20 09:33N 38°41' W 009°08'3 3.0
2015-May-20 08:33N 38°39' W 009°05'1 0.9
2015-May-20 07:33N 38°39' W 009°06'3 2.9
2015-May-20 06:33N 38°42' W 009°08'1 0.6
2015-May-20 05:33N 38°42' W 009°08'0 0.0
2015-May-20 04:33N 38°42' W 009°08'4 4.1
2015-May-20 03:33N 38°39' W 009°05'0 0.0
2015-May-20 02:33N 38°39' W 009°05'0 0.0
2015-May-20 01:33N 38°39' W 009°05'0 0.5
2015-May-20 00:33N 38°39' W 009°05'0 0.2
2015-May-19 23:33N 38°39' W 009°05'0 0.1
2015-May-19 22:33N 38°39' W 009°05'1 1.1
2015-May-19 21:33N 38°40' W 009°06'0 0.2
2015-May-19 20:33N 38°40' W 009°07'2 1.7
2015-May-19 19:33N 38°39' W 009°05'0 0.0
2015-May-19 18:33N 38°39' W 009°05'1 1.1
2015-May-19 17:33N 38°40' W 009°06'3 3.0
2015-May-19 16:33N 38°42' W 009°08'4 3.9
2015-May-19 15:33N 38°39' W 009°05'0 0.0
2015-May-19 12:26N 38°39' W 009°05'1 1.7
2015-May-19 11:33N 38°40' W 009°07'0 0.3
2015-May-19 10:33N 38°40' W 009°06'1 1.2
2015-May-19 09:33N 38°39' W 009°05'0 0.0
2015-May-19 08:33N 38°39' W 009°05'0 0.1
2015-May-19 07:34N 38°39' W 009°05'1 0.9
2015-May-19 06:33N 38°39' W 009°06'1 0.8
2015-May-19 05:33N 38°39' W 009°05'0 0.0
2015-May-18 20:19N 38°39' W 009°05'3 3.9
2015-May-18 19:33N 38°41' W 009°08'2 2.4
2015-May-18 18:33N 38°39' W 009°06'3 3.1
2015-May-18 17:34N 38°42' W 009°08'0 0.4
2015-May-18 16:33N 38°42' W 009°08'1 1.0
2015-May-18 15:33N 38°41' W 009°08'3 3.3
2015-May-18 14:33N 38°39' W 009°05'2 1.8
2015-May-18 13:33N 38°40' W 009°07'0 0.5
2015-May-18 12:33N 38°40' W 009°06'1 1.3
2015-May-18 11:33N 38°39' W 009°05'0 0.0
2015-May-18 08:33N 38°39' W 009°05'0 0.4
2015-May-18 07:34N 38°39' W 009°05'0 0.5
2015-May-18 06:32N 38°39' W 009°05'0 0.1
2015-May-18 05:33N 38°39' W 009°05'3 0.1
2015-May-16 20:33N 38°41' W 009°08'3 2.7
2015-May-16 19:33N 38°39' W 009°05'2 1.5
2015-May-16 18:33N 38°40' W 009°07'0 0.1
2015-May-16 17:34N 38°40' W 009°07'0 0.1
2015-May-16 16:33N 38°40' W 009°07'0 0.3
2015-May-16 15:34N 38°40' W 009°07'0 0.3
2015-May-16 14:33N 38°40' W 009°07'0 0.2
2015-May-16 13:33N 38°40' W 009°06'0 0.2
2015-May-16 12:34N 38°40' W 009°07'2 1.6
2015-May-16 11:33N 38°39' W 009°05'0 0.0
2015-May-16 10:33N 38°39' W 009°05'3 2.9
2015-May-16 09:33N 38°41' W 009°08'0 0.0
2015-May-16 08:33N 38°41' W 009°08'0 0.2
2015-May-16 07:33N 38°41' W 009°08'3 2.6
2015-May-16 06:34N 38°39' W 009°05'0 0.1
2015-May-16 05:34N 38°39' W 009°05'0 0.2
2015-May-16 04:33N 38°39' W 009°05'0 0.0
2015-May-16 03:33N 38°39' W 009°05'0 0.0
2015-May-16 02:33N 38°39' W 009°05'0 0.0
2015-May-16 01:33N 38°39' W 009°05'0 0.0
2015-May-16 00:33N 38°39' W 009°05'0 0.0
2015-May-15 23:33N 38°39' W 009°05'4 3.9
2015-May-15 22:33N 38°42' W 009°08'1 1.4
2015-May-15 21:33N 38°41' W 009°08'0 0.3
2015-May-15 20:34N 38°41' W 009°08'  

Dump ship's entire track history